Terminal Aerodrome Forecast
Issued by NWS

Home | Current Version | Previous Version | Text Only | Print | Product List | Glossary On
Versions: 1 2 3 4 5 6 7 8 9 10 11 12 13 14 15 16 17 18 19
617
FTAK31 PAJN 200607 AAA
TAFASI
TAF AMD
PASI 200607Z 2006/2106 16006KT 6SM -SHRA BR SCT015 OVC025
      TEMPO 2006/2008 4SM -RA BR
     FM201000 15006KT P6SM VCSH SCT015 OVC035
     FM202100 14010KT P6SM -RA SCT015 OVC035=

USA.gov is the U.S. government's official web portal to all federal, state and local government web resources and services.